Terminal Aerodrome Forecast
Issued by NWS Shreveport, LA

Home | Current Version | Previous Version | Text Only | Print | Product List | Glossary On
Versions: 1 2 3 4 5 6 7 8 9 10 11 12 13 14 15 16
686
FTUS44 KSHV 270539
TAFGGG
TAF
KGGG 270539Z 2706/2806 17006KT P6SM BKN300
     FM271200 20006KT P6SM SCT005 SCT012 SCT300
     FM271500 23010KT P6SM SCT020 SCT300
     FM271700 22009KT P6SM SCT040 SCT300
     FM280100 19006KT P6SM BKN250=

USA.gov is the U.S. government's official web portal to all federal, state and local government web resources and services.